Time;durP1;ratioP1;P1;durP2;ratioP2;P2;SDS_P1;SDS_P2;PMS_P1;PMS_P2;Temp;Humidity;BMP_temperature;BMP_pressure;BME280_temperature;BME280_humidity;BME280_pressure;Samples;Min_cycle;Max_cycle;Signal;HPM_P1;HPM_P2
2022/06/28 00:00:31;;;;;;;21.33;13.95;;;15.80;92.90;;;;;;5073273;28;20236;-87
2022/06/28 00:02:57;;;;;;;18.05;13.02;;;15.70;92.90;;;;;;5073351;28;20171;-88
2022/06/28 00:05:23;;;;;;;19.75;12.40;;;15.80;92.90;;;;;;5072320;28;20167;-89
2022/06/28 00:07:49;;;;;;;17.77;11.23;;;15.80;92.80;;;;;;5072801;28;20194;-88
2022/06/28 00:10:15;;;;;;;11.38;10.27;;;15.90;92.80;;;;;;5071791;28;20192;-88
2022/06/28 00:12:41;;;;;;;10.48;9.43;;;15.90;92.80;;;;;;5073315;28;20174;-88
2022/06/28 00:17:53;;;;;;;16.95;10.40;;;15.80;92.50;;;;;;5073977;28;20637;-88
2022/06/28 00:20:19;;;;;;;17.20;10.80;;;15.80;92.50;;;;;;5073050;28;20203;-88
2022/06/28 00:22:48;;;;;;;12.18;10.25;;;15.80;92.50;;;;;;5073152;28;20171;-89
2022/06/28 00:25:14;;;;;;;10.88;9.68;;;15.90;92.50;;;;;;5075147;28;20224;-89
2022/06/28 00:27:40;;;;;;;11.38;8.40;;;15.80;92.50;;;;;;5072988;28;20207;-88
2022/06/28 00:30:06;;;;;;;14.88;8.43;;;15.80;92.40;;;;;;5080546;28;20571;-86
2022/06/28 00:32:32;;;;;;;12.55;8.25;;;15.90;92.40;;;;;;5076981;28;20587;-87
2022/06/28 00:34:59;;;;;;;16.08;9.25;;;15.90;92.40;;;;;;5076841;28;20214;-87
2022/06/28 00:37:25;;;;;;;13.85;8.65;;;15.90;92.40;;;;;;5076469;28;20240;-87
2022/06/28 00:39:51;;;;;;;9.50;8.48;;;16.00;92.40;;;;;;5076597;28;20198;-87
2022/06/28 00:42:17;;;;;;;11.68;8.40;;;16.00;92.30;;;;;;5076784;28;20195;-87
2022/06/28 00:44:43;;;;;;;14.48;9.25;;;16.00;92.20;;;;;;5076371;28;20532;-87
2022/06/28 00:47:09;;;;;;;11.85;8.30;;;16.00;92.20;;;;;;5076522;28;20202;-86
2022/06/28 00:49:41;;;;;;;13.40;8.65;;;15.90;92.20;;;;;;5076251;28;20174;-87
2022/06/28 00:52:08;;;;;;;15.13;8.73;;;15.90;92.10;;;;;;5076200;28;20187;-87
2022/06/28 00:54:34;;;;;;;10.25;8.02;;;15.90;92.20;;;;;;5076186;28;20171;-87
2022/06/28 00:57:00;;;;;;;11.82;7.70;;;15.90;92.30;;;;;;5074761;28;20564;-87
2022/06/28 00:59:26;;;;;;;13.00;7.00;;;15.90;92.30;;;;;;5076193;28;20516;-87
2022/06/28 01:01:51;;;;;;;12.95;7.57;;;16.00;92.30;;;;;;5075991;28;20265;-87
2022/06/28 01:04:17;;;;;;;9.75;7.05;;;16.00;92.20;;;;;;5076045;28;20644;-86
2022/06/28 01:06:43;;;;;;;11.07;6.65;;;16.00;92.20;;;;;;5076060;28;20187;-87
2022/06/28 01:09:09;;;;;;;9.60;6.82;;;16.00;92.20;;;;;;5076265;28;20203;-87
2022/06/28 01:11:34;;;;;;;19.23;7.55;;;16.00;92.00;;;;;;5075783;28;20207;-87
2022/06/28 01:14:07;;;;;;;25.58;7.13;;;15.90;92.20;;;;;;5075886;28;20218;-87
2022/06/28 01:16:33;;;;;;;21.88;8.20;;;15.90;92.20;;;;;;5075891;28;20178;-87
2022/06/28 01:18:59;;;;;;;26.73;7.63;;;15.80;92.40;;;;;;5075792;28;20172;-87
2022/06/28 01:21:27;;;;;;;24.42;8.40;;;15.80;92.60;;;;;;5075792;28;20282;-87
2022/06/28 01:23:54;;;;;;;24.55;6.95;;;15.90;92.60;;;;;;5075748;28;20168;-87
2022/06/28 01:26:20;;;;;;;26.25;7.80;;;15.90;92.60;;;;;;5076472;28;20699;-86
2022/06/28 01:28:48;;;;;;;19.35;8.68;;;15.90;92.80;;;;;;5075536;28;20178;-87
2022/06/28 01:31:14;;;;;;;22.95;6.90;;;15.90;92.90;;;;;;5075513;28;20570;-86
2022/06/28 01:33:40;;;;;;;25.75;7.57;;;15.90;92.90;;;;;;5075487;28;20168;-87
2022/06/28 01:36:10;;;;;;;20.17;6.75;;;15.90;92.90;;;;;;5075666;28;20188;-87
2022/06/28 01:38:37;;;;;;;22.42;8.00;;;15.80;92.90;;;;;;5075491;28;20231;-86
2022/06/28 01:41:03;;;;;;;16.45;7.80;;;15.80;93.10;;;;;;5075565;28;20188;-87
2022/06/28 01:43:31;;;;;;;12.32;7.55;;;15.80;93.20;;;;;;5075289;28;20179;-86
2022/06/28 01:45:57;;;;;;;17.80;7.18;;;15.70;93.20;;;;;;5073869;28;20195;-87
2022/06/28 01:48:23;;;;;;;17.58;7.20;;;15.70;93.30;;;;;;5075514;28;20242;-86
2022/06/28 01:50:49;;;;;;;12.60;7.00;;;15.80;93.30;;;;;;5075119;28;20214;-86
2022/06/28 01:53:15;;;;;;;26.98;7.90;;;15.80;93.20;;;;;;5075185;28;20164;-86
2022/06/28 01:55:42;;;;;;;13.88;7.80;;;15.70;93.20;;;;;;5075045;28;20189;-86
2022/06/28 01:58:08;;;;;;;11.32;7.68;;;15.70;93.30;;;;;;5074832;28;20211;-86
2022/06/28 02:00:35;;;;;;;16.67;8.05;;;15.70;93.40;;;;;;5074941;28;20198;-86
2022/06/28 02:03:01;;;;;;;22.33;8.55;;;15.70;93.30;;;;;;5074878;28;20171;-87
2022/06/28 02:05:26;;;;;;;21.10;7.80;;;15.60;93.40;;;;;;5074866;28;20237;-86
2022/06/28 02:07:52;;;;;;;15.23;8.50;;;15.70;93.40;;;;;;5074739;28;20222;-86
2022/06/28 02:10:19;;;;;;;20.05;8.80;;;15.70;93.40;;;;;;5074751;28;20731;-86
2022/06/28 02:12:45;;;;;;;19.65;8.00;;;15.70;93.50;;;;;;5074668;28;20168;-86
2022/06/28 02:15:11;;;;;;;21.42;7.97;;;15.70;93.50;;;;;;5073356;28;20187;-87
2022/06/28 02:17:37;;;;;;;12.85;7.50;;;15.70;93.60;;;;;;5074631;28;20183;-86
2022/06/28 02:20:03;;;;;;;18.98;8.15;;;15.70;93.50;;;;;;5075025;28;20531;-86
2022/06/28 02:22:29;;;;;;;11.25;7.80;;;15.70;93.50;;;;;;5074447;28;20176;-87
2022/06/28 02:24:54;;;;;;;14.02;7.07;;;15.70;93.30;;;;;;5074564;28;20179;-86
2022/06/28 02:27:20;;;;;;;15.45;8.23;;;15.70;93.30;;;;;;5074394;28;20191;-86
2022/06/28 02:29:45;;;;;;;17.35;7.90;;;15.60;93.20;;;;;;5074263;28;20167;-87
2022/06/28 02:32:11;;;;;;;25.27;9.57;;;15.60;93.30;;;;;;5074554;28;20163;-86
2022/06/28 02:40:22;;;;;;;28.48;10.82;;;15.50;93.40;;;;;;5074145;28;20709;-86
2022/06/28 02:42:56;;;;;;;24.70;12.90;;;15.50;93.40;;;;;;5074357;28;20212;-86
2022/06/28 02:45:24;;;;;;;17.83;12.05;;;15.50;93.50;;;;;;5074500;28;20164;-86
2022/06/28 02:47:51;;;;;;;19.58;11.43;;;15.60;93.60;;;;;;5074005;28;20195;-87
2022/06/28 02:50:17;;;;;;;22.13;11.85;;;15.60;93.60;;;;;;5074178;28;20191;-87
2022/06/28 02:52:43;;;;;;;28.88;13.05;;;15.60;93.50;;;;;;5073517;28;20168;-87
2022/06/28 02:55:09;;;;;;;17.23;12.10;;;15.60;93.50;;;;;;5074371;28;20532;-87
2022/06/28 02:57:36;;;;;;;29.02;14.48;;;15.60;93.50;;;;;;5074305;28;20183;-87
2022/06/28 03:00:07;;;;;;;22.85;14.20;;;15.60;93.40;;;;;;5074298;28;20167;-88
2022/06/28 03:02:37;;;;;;;18.75;13.88;;;15.60;93.40;;;;;;5074026;28;20167;-86
2022/06/28 03:05:08;;;;;;;19.63;15.50;;;15.60;93.40;;;;;;5073741;28;20210;-87
2022/06/28 03:07:33;;;;;;;25.50;15.55;;;15.60;93.40;;;;;;5072700;28;20190;-87
2022/06/28 03:09:59;;;;;;;20.73;15.00;;;15.60;93.40;;;;;;5073749;28;20427;-87
2022/06/28 03:12:25;;;;;;;22.95;15.93;;;15.60;93.40;;;;;;5073687;28;20656;-87
2022/06/28 03:14:51;;;;;;;36.00;18.77;;;15.60;93.40;;;;;;5073558;28;20172;-87
2022/06/28 03:17:17;;;;;;;25.50;17.23;;;15.60;93.50;;;;;;5073557;28;20175;-87
2022/06/28 03:19:43;;;;;;;25.77;19.85;;;15.60;93.50;;;;;;5073445;28;20167;-86
2022/06/28 03:22:08;;;;;;;35.80;20.98;;;15.60;93.60;;;;;;5073547;28;20167;-86
2022/06/28 03:24:34;;;;;;;34.60;22.30;;;15.50;93.70;;;;;;5073477;28;20182;-87
2022/06/28 03:27:00;;;;;;;38.95;22.38;;;15.50;93.80;;;;;;5073287;28;20199;-87
2022/06/28 03:29:25;;;;;;;34.15;22.08;;;15.50;93.90;;;;;;5073425;28;20206;-86
2022/06/28 03:31:51;;;;;;;29.55;24.70;;;15.50;93.90;;;;;;5073310;28;20205;-86
2022/06/28 03:34:17;;;;;;;33.63;23.17;;;15.50;94.00;;;;;;5073405;28;20163;-87
2022/06/28 03:36:43;;;;;;;31.35;23.25;;;15.40;94.10;;;;;;5072429;28;20229;-87
2022/06/28 03:39:08;;;;;;;32.13;23.13;;;15.40;94.20;;;;;;5073773;28;20176;-88
2022/06/28 03:41:34;;;;;;;30.70;24.42;;;15.30;94.20;;;;;;5073516;28;20676;-86
2022/06/28 03:43:59;;;;;;;37.97;23.60;;;15.40;94.20;;;;;;5073386;28;20332;-87
2022/06/28 03:46:25;;;;;;;33.95;22.98;;;15.40;94.20;;;;;;5073157;28;20198;-87
2022/06/28 03:48:51;;;;;;;33.47;22.20;;;15.50;94.20;;;;;;5073409;28;20178;-88
2022/06/28 03:51:17;;;;;;;31.50;22.52;;;15.50;94.20;;;;;;5073229;28;20198;-86
2022/06/28 03:53:42;;;;;;;39.70;22.80;;;15.50;94.10;;;;;;5073230;28;20217;-87
2022/06/28 03:56:08;;;;;;;28.88;23.20;;;15.50;94.00;;;;;;5072062;28;20179;-87
2022/06/28 03:58:34;;;;;;;29.88;20.95;;;15.50;94.10;;;;;;5073175;28;20175;-87
2022/06/28 04:01:00;;;;;;;36.97;22.02;;;15.60;94.10;;;;;;5073187;28;20252;-87
2022/06/28 04:03:26;;;;;;;27.42;21.35;;;15.60;94.00;;;;;;5073285;28;20174;-87
2022/06/28 04:05:51;;;;;;;31.52;23.20;;;15.60;94.00;;;;;;5076512;28;20175;-87
2022/06/28 04:08:17;;;;;;;42.65;21.33;;;15.70;94.00;;;;;;5077114;28;20217;-86
2022/06/28 04:10:43;;;;;;;29.92;20.30;;;15.70;94.00;;;;;;5077409;28;20187;-87
2022/06/28 04:13:09;;;;;;;40.67;20.88;;;15.80;94.00;;;;;;5077055;28;20164;-87
2022/06/28 04:15:35;;;;;;;32.17;18.80;;;15.90;94.10;;;;;;5077009;28;20202;-87
2022/06/28 04:18:01;;;;;;;38.35;19.10;;;16.10;94.10;;;;;;5076995;28;20521;-87
2022/06/28 04:20:27;;;;;;;40.83;20.38;;;16.20;94.00;;;;;;5076677;28;20328;-87
2022/06/28 04:22:52;;;;;;;22.88;18.35;;;16.20;93.90;;;;;;5076880;28;20213;-87
2022/06/28 04:25:18;;;;;;;25.17;20.15;;;16.10;93.70;;;;;;5076913;28;20235;-86
2022/06/28 04:27:43;;;;;;;33.85;19.35;;;16.10;93.60;;;;;;5076562;28;20292;-86
2022/06/28 04:30:10;;;;;;;27.33;18.13;;;16.10;93.60;;;;;;5075388;28;20193;-86
2022/06/28 04:32:35;;;;;;;31.08;19.42;;;16.00;93.50;;;;;;5076832;28;20587;-86
2022/06/28 04:35:01;;;;;;;27.35;18.85;;;16.00;93.50;;;;;;5076602;28;20164;-87
2022/06/28 04:37:27;;;;;;;31.98;17.73;;;16.00;93.50;;;;;;5076892;28;20341;-87
2022/06/28 04:39:52;;;;;;;26.63;18.08;;;16.00;93.40;;;;;;5076356;28;20168;-86
2022/06/28 04:42:18;;;;;;;30.65;18.65;;;16.00;93.40;;;;;;5076685;28;20225;-86
2022/06/28 04:44:44;;;;;;;26.02;17.08;;;15.90;93.40;;;;;;5076435;28;20171;-86
2022/06/28 04:47:10;;;;;;;26.30;18.08;;;16.00;93.40;;;;;;5076214;28;20237;-86
2022/06/28 04:49:36;;;;;;;28.90;17.85;;;15.90;93.30;;;;;;5076275;28;20171;-86
2022/06/28 04:52:02;;;;;;;26.27;18.60;;;16.00;93.50;;;;;;5076150;28;20192;-87
2022/06/28 04:54:28;;;;;;;24.50;20.27;;;16.00;93.50;;;;;;5076091;28;20641;-86
2022/06/28 04:56:54;;;;;;;24.98;20.23;;;16.00;93.50;;;;;;5075516;28;20203;-86
2022/06/28 04:59:20;;;;;;;30.65;17.73;;;16.00;93.60;;;;;;5073746;28;20266;-87
2022/06/28 05:01:45;;;;;;;19.40;17.38;;;16.00;93.60;;;;;;5074953;28;20196;-87
2022/06/28 05:04:11;;;;;;;19.40;16.30;;;15.80;93.30;;;;;;5075386;28;20544;-87
2022/06/28 05:06:37;;;;;;;24.20;18.55;;;15.80;93.30;;;;;;5074922;28;20202;-87
2022/06/28 05:09:03;;;;;;;22.65;18.73;;;15.70;93.20;;;;;;5074956;28;20203;-88
2022/06/28 05:11:31;;;;;;;21.50;18.90;;;15.80;93.20;;;;;;5073539;28;20199;-86
2022/06/28 05:13:57;;;;;;;21.25;19.05;;;15.70;93.30;;;;;;5074840;28;20171;-88
2022/06/28 05:16:22;;;;;;;24.20;20.08;;;15.70;93.30;;;;;;5074658;28;20176;-87
2022/06/28 05:18:48;;;;;;;21.48;17.45;;;15.70;93.40;;;;;;5073420;28;20191;-87
2022/06/28 05:21:13;;;;;;;27.58;20.27;;;15.70;93.50;;;;;;5074660;28;20234;-87
2022/06/28 05:23:39;;;;;;;19.92;17.90;;;15.70;93.60;;;;;;5074933;28;20183;-87
2022/06/28 05:26:04;;;;;;;22.98;19.40;;;15.80;93.60;;;;;;5074565;28;20229;-87
2022/06/28 05:28:30;;;;;;;23.08;19.70;;;15.80;93.40;;;;;;5074849;28;20271;-87
2022/06/28 05:30:56;;;;;;;21.45;18.20;;;15.80;93.40;;;;;;5074429;28;20187;-86
2022/06/28 05:33:22;;;;;;;21.45;19.15;;;15.80;93.40;;;;;;5074842;28;20654;-87
2022/06/28 05:35:48;;;;;;;21.60;18.05;;;15.90;93.40;;;;;;5073216;28;20172;-87
2022/06/28 05:38:14;;;;;;;25.45;18.90;;;15.80;93.40;;;;;;5074480;28;20247;-87
2022/06/28 05:40:39;;;;;;;22.88;19.35;;;15.80;93.30;;;;;;5074318;28;20187;-87
2022/06/28 05:43:05;;;;;;;20.88;18.10;;;15.90;93.30;;;;;;5074416;28;20182;-87
2022/06/28 05:45:31;;;;;;;20.55;18.00;;;16.00;93.30;;;;;;5074556;28;20172;-87
2022/06/28 05:47:57;;;;;;;23.52;19.73;;;15.90;93.10;;;;;;5074147;28;20278;-86
2022/06/28 05:50:23;;;;;;;25.55;20.73;;;15.90;92.90;;;;;;5074350;28;20245;-86
2022/06/28 05:52:49;;;;;;;27.45;20.10;;;15.90;92.90;;;;;;5074586;28;20669;-87
2022/06/28 05:55:15;;;;;;;27.63;22.92;;;16.00;93.00;;;;;;5074247;28;20168;-86
2022/06/28 05:57:40;;;;;;;31.63;23.10;;;16.10;92.90;;;;;;5037472;28;1071477;-86
2022/06/28 06:00:07;;;;;;;28.75;20.05;;;16.20;92.90;;;;;;5074943;28;20195;-87
2022/06/28 06:02:32;;;;;;;26.33;21.13;;;16.00;92.10;;;;;;5075144;28;20554;-87
2022/06/28 06:04:59;;;;;;;22.55;20.17;;;15.90;92.20;;;;;;5075003;28;20178;-88
2022/06/28 06:07:25;;;;;;;33.53;21.23;;;16.00;92.40;;;;;;5074954;28;20549;-87
2022/06/28 06:09:51;;;;;;;32.45;21.23;;;16.20;92.30;;;;;;5075275;28;20179;-88
2022/06/28 06:12:16;;;;;;;25.65;20.08;;;16.40;92.40;;;;;;5073707;28;20198;-87
2022/06/28 06:14:42;;;;;;;24.88;18.23;;;16.30;91.70;;;;;;5075090;28;20321;-87
2022/06/28 06:17:08;;;;;;;26.40;20.55;;;16.40;91.10;;;;;;5073718;28;20261;-87
2022/06/28 06:19:33;;;;;;;26.73;18.52;;;16.50;91.30;;;;;;5074848;28;20183;-88
2022/06/28 06:21:59;;;;;;;23.42;17.85;;;16.60;91.40;;;;;;5074702;28;20231;-88
2022/06/28 06:24:24;;;;;;;21.40;18.80;;;16.50;90.90;;;;;;5074672;28;20565;-87
2022/06/28 06:26:50;;;;;;;23.48;18.48;;;16.50;91.00;;;;;;5074022;28;20238;-87
2022/06/28 06:29:16;;;;;;;25.25;18.73;;;16.40;90.60;;;;;;5073670;28;20175;-87
2022/06/28 06:31:41;;;;;;;21.98;18.08;;;16.60;91.10;;;;;;5073175;28;20195;-86
2022/06/28 06:34:07;;;;;;;21.50;16.92;;;16.60;90.70;;;;;;5074619;28;20246;-86
2022/06/28 06:36:32;;;;;;;20.52;18.60;;;16.60;90.60;;;;;;5074723;28;20171;-87
2022/06/28 06:38:58;;;;;;;19.38;15.38;;;16.70;90.60;;;;;;5074670;28;20205;-87
2022/06/28 06:41:24;;;;;;;21.67;17.77;;;16.80;90.00;;;;;;5074244;28;20214;-87
2022/06/28 06:43:52;;;;;;;17.65;15.82;;;16.80;90.30;;;;;;5074232;28;20175;-86
2022/06/28 06:46:17;;;;;;;20.50;16.35;;;16.90;90.20;;;;;;5074048;28;20191;-86
2022/06/28 06:48:43;;;;;;;24.60;16.95;;;17.00;90.30;;;;;;5073024;28;20174;-87
2022/06/28 06:51:09;;;;;;;17.83;14.82;;;17.20;90.30;;;;;;5073848;28;20245;-86
2022/06/28 06:53:34;;;;;;;20.23;14.52;;;17.20;89.60;;;;;;5074032;28;20168;-86
2022/06/28 06:56:00;;;;;;;17.48;13.32;;;17.00;88.70;;;;;;5074078;28;20252;-86
2022/06/28 06:58:25;;;;;;;14.57;12.45;;;17.20;89.00;;;;;;5074472;28;20661;-87
2022/06/28 07:00:51;;;;;;;14.23;10.50;;;17.10;88.30;;;;;;5072671;28;20199;-87
2022/06/28 07:03:17;;;;;;;16.92;10.52;;;16.70;86.80;;;;;;5073720;28;20173;-87
2022/06/28 07:05:42;;;;;;;11.27;9.98;;;16.70;87.00;;;;;;5074148;28;20163;-87
2022/06/28 07:08:08;;;;;;;10.43;7.22;;;17.00;87.60;;;;;;5073791;28;20227;-87
2022/06/28 07:10:33;;;;;;;6.75;6.03;;;17.00;85.50;;;;;;5074093;28;20223;-88
2022/06/28 07:13:01;;;;;;;13.30;6.60;;;17.10;84.70;;;;;;5074222;28;20171;-86
2022/06/28 07:15:26;;;;;;;10.65;6.30;;;17.30;83.90;;;;;;5074238;28;20255;-88
2022/06/28 07:17:52;;;;;;;12.13;7.35;;;17.40;83.90;;;;;;5075028;28;20215;-87
2022/06/28 07:20:17;;;;;;;16.67;6.80;;;17.50;84.50;;;;;;5075048;28;20194;-88
2022/06/28 07:22:43;;;;;;;12.43;6.93;;;17.50;83.70;;;;;;5074682;28;20229;-88
2022/06/28 07:25:09;;;;;;;9.10;5.47;;;17.50;83.60;;;;;;5074557;28;20168;-88
2022/06/28 07:27:35;;;;;;;13.88;6.32;;;17.70;83.50;;;;;;5074105;28;20195;-88
2022/06/28 07:30:00;;;;;;;10.15;5.50;;;17.70;83.10;;;;;;5073325;28;20653;-89
2022/06/28 07:32:26;;;;;;;9.25;4.28;;;17.60;81.60;;;;;;5073770;28;20255;-88
2022/06/28 07:34:51;;;;;;;8.15;3.95;;;17.80;81.70;;;;;;5073772;28;20572;-87
2022/06/28 07:37:17;;;;;;;11.68;5.30;;;17.90;81.80;;;;;;5073391;28;20547;-87
2022/06/28 07:39:43;;;;;;;7.75;4.88;;;17.90;80.70;;;;;;5073548;28;20254;-88
2022/06/28 07:42:08;;;;;;;12.02;5.25;;;18.00;81.60;;;;;;5073303;28;20681;-88
2022/06/28 07:44:34;;;;;;;11.80;6.05;;;18.00;80.70;;;;;;5073267;28;20180;-87
2022/06/28 07:47:00;;;;;;;8.45;4.30;;;18.10;80.40;;;;;;5073146;28;20194;-87
2022/06/28 07:52:33;;;;;;;6.22;4.00;;;18.20;78.60;;;;;;5073226;28;20174;-88
2022/06/28 07:54:55;;;;;;;5.28;2.65;;;18.30;79.50;;;;;;5073110;28;20174;-88
2022/06/28 07:57:20;;;;;;;7.85;2.78;;;18.40;77.10;;;;;;5073099;28;20182;-87
2022/06/28 07:59:46;;;;;;;8.52;3.00;;;18.60;77.40;;;;;;5073021;28;20188;-89
2022/06/28 08:02:11;;;;;;;5.97;2.65;;;18.50;75.80;;;;;;5073162;28;20262;-89
2022/06/28 08:04:37;;;;;;;5.03;2.47;;;18.60;76.30;;;;;;5073178;28;20186;-88
2022/06/28 08:07:02;;;;;;;4.60;3.08;;;18.50;75.20;;;;;;5073481;28;20191;-88
2022/06/28 08:09:28;;;;;;;4.72;2.55;;;18.60;75.10;;;;;;5073011;28;20170;-90
2022/06/28 08:11:54;;;;;;;6.30;2.67;;;18.50;72.40;;;;;;5074888;28;20652;-88
2022/06/28 08:14:19;;;;;;;9.57;4.10;;;18.70;73.30;;;;;;5073283;28;20178;-88
2022/06/28 08:16:45;;;;;;;8.27;3.15;;;18.30;72.20;;;;;;5073245;28;20199;-88
2022/06/28 08:19:10;;;;;;;8.00;2.88;;;18.70;72.20;;;;;;5073132;28;20225;-88
2022/06/28 08:21:38;;;;;;;8.40;3.22;;;18.70;72.50;;;;;;5071784;28;20191;-89
2022/06/28 08:24:04;;;;;;;10.43;2.97;;;18.70;71.90;;;;;;5072822;28;20251;-87
2022/06/28 08:26:30;;;;;;;8.88;2.88;;;18.80;72.90;;;;;;5072741;28;20225;-87
2022/06/28 08:28:55;;;;;;;7.78;2.72;;;18.70;70.30;;;;;;5073355;28;20629;-88
2022/06/28 08:31:21;;;;;;;5.20;2.78;;;18.50;68.70;;;;;;5074038;28;20217;-87
2022/06/28 08:33:46;;;;;;;10.55;3.70;;;18.90;71.90;;;;;;5072803;28;20171;-88
2022/06/28 08:36:12;;;;;;;8.70;3.00;;;19.10;71.50;;;;;;5072670;28;20171;-87
2022/06/28 08:38:37;;;;;;;5.75;2.30;;;19.00;72.40;;;;;;5071602;28;20187;-88
2022/06/28 08:41:05;;;;;;;7.05;2.60;;;19.00;70.80;;;;;;5072686;28;20219;-88
2022/06/28 08:43:31;;;;;;;10.80;3.30;;;19.10;71.30;;;;;;5072990;28;20179;-89
2022/06/28 08:45:58;;;;;;;5.25;2.10;;;19.10;71.20;;;;;;5072755;28;20183;-88
2022/06/28 08:48:39;;;;;;;7.90;2.08;;;19.20;70.90;;;;;;5072727;28;20171;-87
2022/06/28 08:51:08;;;;;;;2.92;1.52;;;19.20;71.00;;;;;;5075635;28;20193;-90
2022/06/28 08:53:36;;;;;;;9.27;3.28;;;19.70;70.30;;;;;;5077901;28;20547;-90
2022/06/28 08:56:02;;;;;;;8.65;3.50;;;19.30;67.40;;;;;;5079933;28;20179;-91
2022/06/28 08:58:28;;;;;;;6.97;3.70;;;19.70;68.70;;;;;;5078629;28;20156;-89
2022/06/28 09:00:54;;;;;;;11.73;2.72;;;19.70;67.50;;;;;;5078463;28;20195;-91
2022/06/28 09:03:20;;;;;;;7.65;2.78;;;19.30;69.10;;;;;;5079102;28;20184;-91
2022/06/28 09:05:46;;;;;;;5.03;3.05;;;19.20;68.00;;;;;;5078523;28;20210;-89
2022/06/28 09:08:11;;;;;;;4.50;2.55;;;19.40;70.10;;;;;;5076485;28;20277;-87
2022/06/28 09:10:37;;;;;;;4.90;2.58;;;19.50;70.50;;;;;;5076361;28;20617;-87
2022/06/28 09:13:08;;;;;;;6.82;2.50;;;19.80;70.80;;;;;;5074998;28;20641;-86
2022/06/28 09:15:51;;;;;;;2.45;1.73;;;19.80;69.50;;;;;;5074936;28;20176;-87
2022/06/28 09:18:19;;;;;;;9.82;1.80;;;20.00;65.70;;;;;;5074715;28;20250;-87
2022/06/28 09:20:45;;;;;;;5.15;1.52;;;20.00;65.10;;;;;;5075805;28;20282;-87
2022/06/28 09:23:32;;;;;;;6.55;2.25;;;19.70;65.00;;;;;;5074682;28;20167;-87
2022/06/28 09:26:05;;;;;;;4.60;1.98;;;20.00;67.10;;;;;;5074518;28;20647;-87
2022/06/28 09:28:31;;;;;;;5.47;2.10;;;20.10;66.30;;;;;;5074519;28;20187;-88
2022/06/28 09:31:18;;;;;;;8.32;2.30;;;20.00;65.70;;;;;;5075639;28;20195;-88
2022/06/28 09:34:06;;;;;;;5.05;2.00;;;19.70;65.50;;;;;;5075802;28;20314;-87
2022/06/28 09:36:41;;;;;;;3.53;1.70;;;19.70;68.00;;;;;;5075457;28;20187;-88
2022/06/28 09:39:12;;;;;;;4.60;1.67;;;20.00;69.10;;;;;;5074713;28;20181;-88
2022/06/28 09:41:43;;;;;;;4.88;2.10;;;20.20;68.00;;;;;;5074241;28;20196;-88
2022/06/28 09:44:09;;;;;;;5.80;2.20;;;20.40;69.50;;;;;;5075909;28;20159;-87
2022/06/28 09:46:34;;;;;;;5.82;1.90;;;20.50;66.60;;;;;;5075846;28;20249;-87
2022/06/28 09:49:01;;;;;;;8.02;2.30;;;20.80;64.10;;;;;;5077503;28;20261;-86
2022/06/28 09:51:29;;;;;;;9.93;2.53;;;20.80;65.20;;;;;;5076023;28;20191;-87
2022/06/28 09:54:02;;;;;;;3.03;1.70;;;21.20;63.80;;;;;;5075197;28;20254;-87
2022/06/28 09:56:31;;;;;;;5.18;1.73;;;21.30;61.10;;;;;;5077183;28;20183;-86
2022/06/28 09:58:57;;;;;;;6.15;1.85;;;21.00;63.60;;;;;;5077106;28;20172;-87
2022/06/28 10:01:23;;;;;;;4.90;1.98;;;20.60;61.60;;;;;;5075005;28;20202;-87
2022/06/28 10:03:49;;;;;;;4.40;1.77;;;20.80;62.60;;;;;;5074545;28;20168;-89
2022/06/28 10:06:18;;;;;;;7.28;2.05;;;21.20;61.90;;;;;;5075572;28;20207;-89
2022/06/28 10:08:45;;;;;;;7.57;2.63;;;20.80;61.30;;;;;;5076051;28;20194;-89
2022/06/28 10:11:11;;;;;;;10.18;2.33;;;21.20;64.30;;;;;;5075225;28;20203;-89
2022/06/28 10:16:48;;;;;;;9.98;2.30;;;21.80;62.40;;;;;;5075619;28;20161;-89
2022/06/28 10:19:18;;;;;;;4.38;1.75;;;22.50;61.90;;;;;;5075854;28;20159;-89
2022/06/28 10:22:10;;;;;;;2.70;1.23;;;22.80;61.00;;;;;;5075450;28;20202;-89
2022/06/28 10:24:56;;;;;;;4.45;1.50;;;23.20;59.50;;;;;;5075475;28;20174;-89
2022/06/28 10:27:22;;;;;;;3.65;1.42;;;23.10;57.80;;;;;;5074802;28;20195;-88
2022/06/28 10:30:00;;;;;;;4.50;1.80;;;22.90;55.20;;;;;;5075072;28;20250;-89
2022/06/28 10:32:41;;;;;;;4.75;1.35;;;23.10;55.20;;;;;;5074697;28;20171;-89
2022/06/28 10:35:06;;;;;;;2.65;1.67;;;22.40;54.20;;;;;;5075032;28;20174;-90
2022/06/28 10:37:32;;;;;;;5.70;1.50;;;22.90;57.40;;;;;;5074579;28;20258;-88
2022/06/28 10:40:42;;;;;;;3.63;1.60;;;23.10;57.10;;;;;;5073750;28;20175;-88
2022/06/28 10:43:08;;;;;;;2.53;1.27;;;23.10;58.20;;;;;;5072904;28;20179;-87
2022/06/28 10:46:10;;;;;;;3.70;1.33;;;23.60;56.60;;;;;;5072673;28;20175;-86
2022/06/28 10:48:48;;;;;;;6.35;1.63;;;22.30;55.10;;;;;;4991591;28;20192;-86
2022/06/28 10:51:14;;;;;;;4.18;1.40;;;21.90;58.60;;;;;;5063408;28;20206;-86
2022/06/28 10:53:55;;;;;;;4.50;1.52;;;22.50;57.00;;;;;;5074410;28;20195;-87
2022/06/28 10:56:21;;;;;;;4.82;1.52;;;22.40;54.80;;;;;;5074120;28;20281;-87
2022/06/28 10:59:02;;;;;;;5.03;1.85;;;22.30;57.50;;;;;;5074285;28;20213;-87
2022/06/28 11:01:40;;;;;;;6.53;1.88;;;21.90;58.30;;;;;;5074212;28;20191;-86
2022/06/28 11:04:18;;;;;;;4.75;1.75;;;22.00;59.60;;;;;;5074666;28;20174;-86
2022/06/28 11:07:19;;;;;;;7.15;1.90;;;21.70;59.70;;;;;;5074019;28;20195;-87
2022/06/28 11:09:52;;;;;;;4.90;2.00;;;21.60;59.80;;;;;;5073951;28;20188;-87
2022/06/28 11:12:22;;;;;;;7.03;1.98;;;21.60;59.60;;;;;;5074055;28;20156;-87
2022/06/28 11:14:56;;;;;;;5.75;1.63;;;22.00;60.00;;;;;;5073681;28;20258;-87
2022/06/28 11:17:22;;;;;;;3.47;1.52;;;22.40;59.30;;;;;;5074190;28;20166;-87
2022/06/28 11:19:51;;;;;;;4.82;1.98;;;22.10;60.50;;;;;;5074032;28;20172;-86
2022/06/28 11:22:22;;;;;;;2.85;1.20;;;22.50;57.80;;;;;;5074003;28;20168;-87
2022/06/28 11:24:48;;;;;;;3.38;1.48;;;23.00;55.70;;;;;;5073920;28;20172;-87
2022/06/28 11:27:20;;;;;;;3.65;1.20;;;23.10;56.80;;;;;;5073725;28;20188;-87
2022/06/28 11:29:47;;;;;;;4.65;1.60;;;22.70;55.90;;;;;;5073778;28;20144;-86
2022/06/28 11:32:18;;;;;;;5.53;1.30;;;22.70;57.40;;;;;;5073713;28;20171;-86
2022/06/28 11:34:44;;;;;;;2.95;1.40;;;22.90;57.90;;;;;;5073647;28;20167;-87
2022/06/28 11:37:10;;;;;;;4.55;1.75;;;22.60;57.90;;;;;;5073582;28;20174;-86
2022/06/28 11:39:35;;;;;;;5.32;1.75;;;22.70;56.00;;;;;;5073458;28;20172;-87
2022/06/28 11:42:01;;;;;;;2.58;1.25;;;22.90;57.20;;;;;;5073532;28;20191;-86
2022/06/28 11:44:27;;;;;;;3.58;1.30;;;22.80;54.30;;;;;;5073858;28;20312;-88
2022/06/28 11:46:53;;;;;;;4.95;1.30;;;23.20;52.30;;;;;;5073758;28;20270;-88
2022/06/28 11:49:30;;;;;;;4.45;1.10;;;22.20;54.40;;;;;;5073590;28;20718;-88
2022/06/28 11:51:56;;;;;;;2.75;1.40;;;22.70;52.90;;;;;;5073704;28;20187;-88
2022/06/28 11:54:21;;;;;;;4.50;1.50;;;22.80;54.30;;;;;;5072447;28;20179;-88
2022/06/28 11:56:47;;;;;;;3.63;1.05;;;23.50;51.30;;;;;;5073776;28;20187;-88
2022/06/28 11:59:14;;;;;;;3.55;1.33;;;23.30;54.60;;;;;;5073836;28;20657;-88
2022/06/28 12:01:41;;;;;;;4.43;1.58;;;23.10;53.80;;;;;;5073551;28;20214;-89
2022/06/28 12:04:07;;;;;;;4.30;1.58;;;23.40;53.30;;;;;;5072472;28;20550;-89
2022/06/28 12:06:35;;;;;;;5.28;1.70;;;23.70;53.80;;;;;;5072446;28;20199;-88
2022/06/28 12:09:07;;;;;;;6.78;1.50;;;22.70;55.50;;;;;;5072375;28;20183;-88
2022/06/28 12:11:34;;;;;;;3.33;1.33;;;23.20;56.10;;;;;;5072292;28;20191;-89
2022/06/28 12:14:02;;;;;;;4.78;1.58;;;23.20;54.80;;;;;;5073553;28;20222;-88
2022/06/28 12:16:32;;;;;;;3.45;1.30;;;23.40;57.40;;;;;;5073750;28;20192;-88
2022/06/28 12:18:59;;;;;;;1.92;1.33;;;23.50;54.90;;;;;;5073300;28;20250;-89
2022/06/28 12:21:26;;;;;;;3.47;1.08;;;23.50;51.90;;;;;;5073309;28;20187;-88
2022/06/28 12:23:54;;;;;;;2.47;0.90;;;23.20;49.50;;;;;;5073404;28;20203;-89
2022/06/28 12:26:20;;;;;;;2.40;1.00;;;23.80;53.00;;;;;;5076057;28;20680;-88
2022/06/28 12:28:46;;;;;;;2.38;1.08;;;24.30;51.00;;;;;;5075982;28;20245;-89
2022/06/28 12:31:12;;;;;;;3.00;1.20;;;23.80;51.90;;;;;;5077541;28;20218;-88
2022/06/28 12:33:37;;;;;;;2.28;1.00;;;24.10;50.90;;;;;;5077514;28;20212;-89
2022/06/28 12:36:04;;;;;;;2.88;1.05;;;24.00;49.60;;;;;;5077627;28;20172;-89
2022/06/28 12:38:29;;;;;;;3.53;1.10;;;24.20;53.60;;;;;;5075864;28;20641;-88
2022/06/28 12:40:56;;;;;;;1.55;0.90;;;24.60;49.00;;;;;;5077219;28;20213;-88
2022/06/28 12:43:22;;;;;;;3.10;1.10;;;23.70;46.30;;;;;;5077414;28;20212;-88
2022/06/28 12:45:47;;;;;;;2.97;0.90;;;23.70;48.30;;;;;;5077221;28;20159;-88
2022/06/28 12:48:13;;;;;;;4.25;1.38;;;23.70;46.60;;;;;;5077175;28;20195;-89
2022/06/28 12:50:39;;;;;;;2.00;1.00;;;23.90;49.40;;;;;;5076582;28;20183;-88
2022/06/28 12:53:04;;;;;;;3.42;1.00;;;24.70;50.00;;;;;;5076776;28;20164;-89